createdAt,value
2022-10-29T00:00:56.622Z,9.05
2022-10-29T00:03:25.269Z,12.57
2022-10-29T00:05:56.455Z,13.23
2022-10-29T00:08:23.125Z,10.55
2022-10-29T00:10:49.762Z,9.20
2022-10-29T00:13:16.595Z,10.23
2022-10-29T00:15:43.286Z,13.50
2022-10-29T00:18:09.966Z,10.82
2022-10-29T00:20:37.990Z,7.38
2022-10-29T00:23:04.699Z,10.07
2022-10-29T00:25:31.391Z,9.80
2022-10-29T00:27:58.074Z,15.80
2022-10-29T00:30:25.824Z,9.63
2022-10-29T00:32:52.772Z,9.13
2022-10-29T00:35:19.589Z,9.60
2022-10-29T00:37:47.626Z,10.00
2022-10-29T00:40:14.324Z,10.70
2022-10-29T00:42:40.972Z,9.13
2022-10-29T00:45:18.314Z,10.02
2022-10-29T00:47:49.255Z,9.07
2022-10-29T00:50:16.099Z,9.60
2022-10-29T00:52:46.041Z,13.95
2022-10-29T00:55:15.760Z,11.02
2022-10-29T00:57:45.446Z,11.98
2022-10-29T01:00:13.533Z,10.48
2022-10-29T01:02:40.689Z,17.33
2022-10-29T01:05:09.048Z,12.10
2022-10-29T01:07:35.776Z,15.18
2022-10-29T01:10:02.559Z,21.50
2022-10-29T01:12:40.954Z,19.38
2022-10-29T01:15:17.232Z,14.95
2022-10-29T01:17:55.374Z,18.42
2022-10-29T01:20:57.607Z,13.57
2022-10-29T01:23:58.582Z,14.07
2022-10-29T01:26:48.234Z,15.80
2022-10-29T01:29:33.790Z,13.35
2022-10-29T01:32:07.246Z,12.38
2022-10-29T01:34:42.538Z,13.48
2022-10-29T01:37:14.667Z,12.43
2022-10-29T01:39:49.650Z,9.43
2022-10-29T01:42:24.341Z,10.75
2022-10-29T01:44:56.473Z,11.65
2022-10-29T01:47:29.077Z,10.85
2022-10-29T01:50:00.099Z,11.25
2022-10-29T01:52:29.289Z,10.02
2022-10-29T01:54:55.942Z,9.52
2022-10-29T01:57:28.063Z,10.90
2022-10-29T01:59:57.798Z,13.10
2022-10-29T02:02:30.746Z,12.07
2022-10-29T02:05:08.476Z,12.43
2022-10-29T02:07:45.628Z,10.10
2022-10-29T02:10:19.550Z,8.75
2022-10-29T02:12:48.668Z,11.57
2022-10-29T02:15:19.463Z,11.20
2022-10-29T02:17:47.729Z,12.20
2022-10-29T02:20:15.469Z,11.30
2022-10-29T02:22:42.486Z,10.93
2022-10-29T02:25:10.041Z,13.38
2022-10-29T02:27:36.937Z,10.18
2022-10-29T02:30:04.671Z,8.25
2022-10-29T02:32:31.281Z,14.43
2022-10-29T02:34:59.724Z,10.52
2022-10-29T02:37:26.372Z,13.10
2022-10-29T02:39:53.006Z,10.02
2022-10-29T02:42:19.676Z,9.00
2022-10-29T02:44:46.303Z,8.88
2022-10-29T02:47:12.943Z,11.75
2022-10-29T02:49:39.635Z,9.10
2022-10-29T02:52:07.668Z,9.05
2022-10-29T02:54:34.360Z,11.15
2022-10-29T02:57:01.024Z,11.45
2022-10-29T02:59:27.720Z,10.60
2022-10-29T03:01:54.633Z,11.20
2022-10-29T03:04:21.589Z,9.13
2022-10-29T03:06:48.240Z,10.13
2022-10-29T03:09:16.316Z,9.02
2022-10-29T03:11:42.952Z,9.38
2022-10-29T03:14:09.797Z,9.95
2022-10-29T03:16:36.528Z,11.50
2022-10-29T03:19:03.908Z,11.35
2022-10-29T03:21:30.634Z,10.82
2022-10-29T03:23:57.290Z,6.50
2022-10-29T03:26:25.343Z,8.30
2022-10-29T03:28:52.169Z,8.68
2022-10-29T03:31:18.972Z,7.65
2022-10-29T03:33:45.609Z,10.40
2022-10-29T03:36:12.399Z,6.78
2022-10-29T03:38:39.146Z,9.10
2022-10-29T03:41:05.792Z,6.43
2022-10-29T03:43:34.595Z,6.35
2022-10-29T03:46:01.263Z,9.32
2022-10-29T03:48:28.782Z,8.15
2022-10-29T03:50:55.826Z,8.52
2022-10-29T03:53:22.877Z,6.93
2022-10-29T03:55:50.246Z,10.00
2022-10-29T03:58:16.986Z,8.13
2022-10-29T04:00:45.119Z,8.45
2022-10-29T04:03:11.796Z,6.75
2022-10-29T04:05:38.433Z,7.97
2022-10-29T04:08:05.565Z,7.32
2022-10-29T04:10:32.254Z,11.75
2022-10-29T04:12:59.060Z,7.57
2022-10-29T04:15:25.864Z,9.50
2022-10-29T04:17:54.140Z,10.07
2022-10-29T04:20:45.334Z,7.50
2022-10-29T04:24:12.092Z,9.50
2022-10-29T04:28:17.887Z,13.07
2022-10-29T04:28:48.734Z,7.90
2022-10-29T04:31:15.433Z,5.97
2022-10-29T04:33:43.507Z,8.07
2022-10-29T04:36:10.385Z,6.25
2022-10-29T04:38:37.147Z,8.23
2022-10-29T04:41:04.334Z,9.48
2022-10-29T04:43:31.520Z,6.82
2022-10-29T04:45:59.448Z,6.45
2022-10-29T04:48:28.085Z,7.53
2022-10-29T04:50:56.305Z,8.82
2022-10-29T04:53:23.188Z,7.90
2022-10-29T04:55:49.846Z,7.78
2022-10-29T04:58:18.259Z,8.68
2022-10-29T05:00:45.506Z,8.93
2022-10-29T05:03:12.369Z,8.35
2022-10-29T05:05:40.115Z,8.27
2022-10-29T05:08:10.494Z,8.30
2022-10-29T05:10:39.170Z,12.73
2022-10-29T05:13:07.585Z,14.93
2022-10-29T05:15:34.986Z,9.13
2022-10-29T05:18:02.126Z,7.32
2022-10-29T05:20:29.133Z,9.07
2022-10-29T05:22:59.320Z,10.85
2022-10-29T05:25:27.651Z,14.68
2022-10-29T05:28:03.839Z,8.30
2022-10-29T05:30:35.096Z,8.77
2022-10-29T05:33:01.775Z,9.00
2022-10-29T05:35:28.485Z,9.88
2022-10-29T05:37:56.320Z,8.65
2022-10-29T05:40:25.401Z,7.65
2022-10-29T05:42:54.859Z,9.85
2022-10-29T05:45:21.742Z,10.80
2022-10-29T05:47:54.867Z,9.07
2022-10-29T05:50:21.491Z,10.20
2022-10-29T05:52:55.745Z,8.55
2022-10-29T05:55:22.686Z,9.30
2022-10-29T05:57:49.386Z,10.00
2022-10-29T06:00:17.907Z,8.95
2022-10-29T06:02:44.993Z,22.65
2022-10-29T06:05:11.863Z,33.20
2022-10-29T06:07:38.487Z,14.77
2022-10-29T06:10:06.388Z,13.30
2022-10-29T06:12:34.868Z,12.23
2022-10-29T06:15:01.934Z,9.73
2022-10-29T06:17:30.164Z,12.45
2022-10-29T06:19:56.870Z,15.40
2022-10-29T06:22:23.556Z,8.77
2022-10-29T06:24:50.189Z,15.10
2022-10-29T06:27:16.867Z,12.30
2022-10-29T06:29:43.537Z,11.35
2022-10-29T06:32:10.213Z,12.32
2022-10-29T06:34:38.197Z,11.27
2022-10-29T06:37:04.863Z,13.73
2022-10-29T06:39:31.535Z,12.30
2022-10-29T06:41:58.286Z,10.82
2022-10-29T06:44:24.953Z,12.65
2022-10-29T06:46:51.594Z,10.98
2022-10-29T06:49:23.942Z,11.73
2022-10-29T06:51:52.029Z,9.77
2022-10-29T06:54:18.746Z,11.52
2022-10-29T06:56:45.468Z,15.35
2022-10-29T06:59:12.103Z,12.07
2022-10-29T07:01:38.889Z,10.55
2022-10-29T07:04:05.731Z,11.32
2022-10-29T07:06:33.033Z,14.13
2022-10-29T07:09:01.097Z,10.30
2022-10-29T07:11:27.781Z,10.30
2022-10-29T07:13:54.428Z,11.25
2022-10-29T07:16:21.134Z,9.45
2022-10-29T07:18:47.807Z,12.00
2022-10-29T07:21:14.492Z,12.80
2022-10-29T07:23:46.399Z,8.88
2022-10-29T07:26:14.459Z,10.45
2022-10-29T07:28:41.299Z,9.50
2022-10-29T07:31:08.016Z,10.35
2022-10-29T07:33:34.720Z,10.20
2022-10-29T07:36:01.463Z,10.13
2022-10-29T07:38:28.208Z,11.77
2022-10-29T07:40:54.860Z,14.32
2022-10-29T07:43:22.998Z,12.93
2022-10-29T07:45:50.846Z,10.93
2022-10-29T07:48:18.493Z,10.25
2022-10-29T07:50:45.172Z,10.48
2022-10-29T07:53:11.867Z,9.18
2022-10-29T07:55:38.576Z,16.13
2022-10-29T07:58:07.903Z,12.70
2022-10-29T08:00:37.769Z,11.52
2022-10-29T08:03:05.669Z,11.45
2022-10-29T08:05:32.559Z,13.70
2022-10-29T08:07:59.623Z,10.60
2022-10-29T08:10:27.080Z,9.57
2022-10-29T08:12:55.926Z,11.98
2022-10-29T08:15:23.765Z,11.57
2022-10-29T08:17:51.858Z,11.45
2022-10-29T08:20:19.120Z,15.30
2022-10-29T08:22:45.804Z,16.40
2022-10-29T08:25:13.290Z,10.05
2022-10-29T08:27:40.110Z,10.90
2022-10-29T08:30:09.185Z,11.30
2022-10-29T08:32:35.908Z,11.65
2022-10-29T08:35:04.359Z,13.60
2022-10-29T08:37:30.990Z,12.88
2022-10-29T08:39:57.662Z,8.95
2022-10-29T08:42:40.348Z,13.20
2022-10-29T08:45:23.959Z,8.70
2022-10-29T08:48:15.797Z,8.93
2022-10-29T08:50:49.737Z,9.82
2022-10-29T08:53:23.161Z,11.05
2022-10-29T08:55:51.105Z,15.07
2022-10-29T08:58:30.787Z,12.15
2022-10-29T09:00:58.697Z,12.20
2022-10-29T09:03:27.463Z,9.95
2022-10-29T09:06:03.867Z,9.25
2022-10-29T09:08:40.619Z,9.40
2022-10-29T09:11:20.796Z,13.02
2022-10-29T09:13:53.624Z,16.43
2022-10-29T09:16:33.112Z,14.07
2022-10-29T09:19:13.268Z,15.98
2022-10-29T09:21:52.187Z,13.38
2022-10-29T09:24:25.595Z,13.70
2022-10-29T09:26:57.820Z,14.63
2022-10-29T09:29:56.256Z,17.02
2022-10-29T09:32:26.632Z,12.60
2022-10-29T09:34:57.986Z,12.95
2022-10-29T09:37:39.420Z,17.23
2022-10-29T09:40:16.842Z,13.30
2022-10-29T09:42:46.806Z,13.68
2022-10-29T09:45:16.143Z,14.63
2022-10-29T09:47:50.425Z,20.52
2022-10-29T09:50:25.622Z,15.77
2022-10-29T09:52:54.009Z,13.03
2022-10-29T09:55:25.367Z,16.33
2022-10-29T09:57:53.487Z,12.27
2022-10-29T10:00:23.893Z,11.30
2022-10-29T10:03:00.099Z,13.93
2022-10-29T10:05:29.418Z,14.63
2022-10-29T10:08:11.626Z,14.65
2022-10-29T10:10:50.145Z,11.13
2022-10-29T10:13:18.318Z,12.60
2022-10-29T10:15:51.943Z,12.25
2022-10-29T10:18:21.196Z,10.33
2022-10-29T10:20:59.281Z,12.25
2022-10-29T10:23:28.873Z,13.23
2022-10-29T10:26:00.467Z,14.43
2022-10-29T10:28:32.898Z,10.38
2022-10-29T10:31:08.393Z,10.27
2022-10-29T10:33:43.759Z,14.07
2022-10-29T10:36:10.828Z,12.05
2022-10-29T10:38:41.404Z,13.05
2022-10-29T10:41:10.583Z,9.90
2022-10-29T10:43:38.362Z,10.50
2022-10-29T10:46:13.096Z,10.23
2022-10-29T10:48:39.815Z,9.98
2022-10-29T10:51:14.873Z,14.02
2022-10-29T10:53:43.041Z,11.23
2022-10-29T10:56:17.778Z,11.47
2022-10-29T10:58:49.152Z,10.80
2022-10-29T11:01:22.684Z,11.27
2022-10-29T11:03:57.910Z,11.70
2022-10-29T11:06:28.412Z,13.23
2022-10-29T11:09:00.285Z,12.00
2022-10-29T11:11:30.500Z,10.75
2022-10-29T11:14:03.236Z,10.45
2022-10-29T11:16:37.611Z,9.57
2022-10-29T11:19:13.785Z,10.73
2022-10-29T11:21:46.507Z,13.87
2022-10-29T11:24:18.515Z,15.25
2022-10-29T11:26:49.039Z,11.07
2022-10-29T11:29:24.972Z,10.43
2022-10-29T11:32:00.044Z,12.18
2022-10-29T11:34:35.533Z,12.17
2022-10-29T11:37:13.118Z,14.93
2022-10-29T11:39:49.382Z,10.65
2022-10-29T11:42:16.198Z,13.20
2022-10-29T11:44:42.853Z,11.35
2022-10-29T11:47:35.276Z,10.67
2022-10-29T11:50:14.796Z,15.48
2022-10-29T11:52:49.993Z,11.00
2022-10-29T11:55:28.587Z,11.57
2022-10-29T11:57:59.194Z,12.60
2022-10-29T12:00:30.080Z,14.33
2022-10-29T12:03:31.298Z,10.82
2022-10-29T12:06:09.053Z,10.02
2022-10-29T12:08:48.741Z,14.27
2022-10-29T12:11:23.911Z,12.07
2022-10-29T12:14:00.241Z,13.73
2022-10-29T12:16:36.637Z,11.38
2022-10-29T12:19:11.751Z,9.35
2022-10-29T12:21:45.803Z,12.27
2022-10-29T12:24:36.471Z,10.95
2022-10-29T12:27:10.823Z,13.20
2022-10-29T12:29:42.543Z,12.80
2022-10-29T12:32:15.538Z,10.18
2022-10-29T12:34:49.399Z,10.02
2022-10-29T12:37:30.351Z,9.77
2022-10-29T12:40:02.781Z,12.80
2022-10-29T12:42:31.337Z,10.35
2022-10-29T12:45:08.524Z,13.27
2022-10-29T12:47:40.377Z,14.45
2022-10-29T12:50:23.842Z,12.65
2022-10-29T12:53:03.582Z,14.13
2022-10-29T12:55:31.746Z,11.10
2022-10-29T12:57:59.811Z,9.48
2022-10-29T13:00:45.840Z,17.08
2022-10-29T13:03:12.608Z,11.48
2022-10-29T13:05:41.747Z,11.90
2022-10-29T13:08:33.972Z,13.55
2022-10-29T13:11:01.075Z,12.68
2022-10-29T13:13:49.366Z,9.80
2022-10-29T13:16:19.120Z,13.40
2022-10-29T13:19:02.631Z,8.90
2022-10-29T13:21:58.290Z,12.20
2022-10-29T13:24:30.538Z,11.00
2022-10-29T13:27:03.617Z,15.98
2022-10-29T13:30:08.964Z,11.90
2022-10-29T13:32:38.403Z,11.30
2022-10-29T13:35:39.250Z,18.58
2022-10-29T13:38:15.664Z,13.90
2022-10-29T13:41:20.495Z,14.85
2022-10-29T13:43:54.458Z,12.20
2022-10-29T13:46:46.033Z,12.13
2022-10-29T13:49:18.678Z,12.07
2022-10-29T13:51:55.646Z,11.95
2022-10-29T13:54:31.134Z,13.90
2022-10-29T13:56:59.806Z,10.68
2022-10-29T13:59:36.091Z,12.27
2022-10-29T14:02:18.619Z,11.68
2022-10-29T14:04:50.759Z,10.10
2022-10-29T14:07:21.803Z,11.90
2022-10-29T14:09:51.854Z,9.80
2022-10-29T14:12:22.690Z,12.03
2022-10-29T14:14:56.346Z,9.18
2022-10-29T14:17:23.000Z,12.63
2022-10-29T14:19:54.690Z,11.57
2022-10-29T14:22:36.544Z,8.63
2022-10-29T14:25:32.305Z,13.73
2022-10-29T14:28:16.419Z,10.82
2022-10-29T14:30:43.301Z,15.40
2022-10-29T14:33:23.591Z,14.75
2022-10-29T14:35:55.652Z,13.27
2022-10-29T14:38:29.777Z,11.83
2022-10-29T14:40:56.669Z,12.23
2022-10-29T14:43:26.454Z,12.27
2022-10-29T14:45:55.430Z,12.38
2022-10-29T14:48:22.237Z,12.35
2022-10-29T14:50:51.259Z,11.97
2022-10-29T14:53:27.236Z,14.70
2022-10-29T14:55:53.993Z,16.17
2022-10-29T15:01:00.133Z,18.38
2022-10-29T15:03:30.033Z,12.30
2022-10-29T15:06:14.501Z,13.90
2022-10-29T15:08:42.607Z,10.75
2022-10-29T15:11:32.067Z,11.75
2022-10-29T15:13:58.927Z,9.65
2022-10-29T15:16:25.935Z,13.17
2022-10-29T15:18:53.830Z,10.60
2022-10-29T15:21:23.808Z,11.07
2022-10-29T15:23:53.862Z,13.10
2022-10-29T15:26:23.447Z,10.73
2022-10-29T15:28:52.911Z,15.20
2022-10-29T15:31:23.512Z,12.70
2022-10-29T15:33:52.262Z,14.88
2022-10-29T15:36:19.090Z,13.20
2022-10-29T15:39:18.076Z,13.90
2022-10-29T15:41:48.029Z,93.40
2022-10-29T15:44:39.522Z,49.08
2022-10-29T15:47:30.110Z,26.75
2022-10-29T15:49:56.798Z,17.42
2022-10-29T15:52:27.613Z,17.52
2022-10-29T15:54:55.625Z,15.50
2022-10-29T15:57:22.459Z,15.18
2022-10-29T15:59:49.187Z,17.08
2022-10-29T16:02:17.207Z,13.70
2022-10-29T16:04:43.960Z,18.40
2022-10-29T16:07:12.680Z,18.37
2022-10-29T16:09:42.267Z,15.13
2022-10-29T16:12:10.820Z,19.35
2022-10-29T16:14:37.485Z,15.35
2022-10-29T16:17:09.976Z,15.75
2022-10-29T16:19:36.660Z,19.77
2022-10-29T16:22:03.393Z,23.98
2022-10-29T16:24:31.912Z,18.20
2022-10-29T16:26:58.569Z,14.65
2022-10-29T16:29:26.560Z,20.27
2022-10-29T16:31:53.315Z,16.67
2022-10-29T16:34:22.259Z,16.38
2022-10-29T16:36:51.390Z,15.65
2022-10-29T16:39:21.584Z,16.23
2022-10-29T16:41:48.276Z,17.00
2022-10-29T16:44:15.228Z,16.07
2022-10-29T16:46:43.611Z,14.65
2022-10-29T16:49:10.326Z,14.55
2022-10-29T16:51:36.993Z,18.00
2022-10-29T16:54:03.913Z,19.23
2022-10-29T16:56:30.751Z,20.20
2022-10-29T16:59:01.560Z,14.30
2022-10-29T17:01:28.893Z,15.55
2022-10-29T17:03:56.986Z,19.63
2022-10-29T17:06:23.768Z,14.23
2022-10-29T17:08:50.603Z,14.53
2022-10-29T17:11:17.376Z,16.35
2022-10-29T17:13:44.040Z,17.20
2022-10-29T17:16:13.011Z,17.30
2022-10-29T17:18:39.716Z,15.48
2022-10-29T17:21:07.847Z,17.57
2022-10-29T17:23:34.757Z,20.48
2022-10-29T17:26:01.819Z,18.63
2022-10-29T17:28:28.578Z,15.70
2022-10-29T17:30:55.320Z,21.10
2022-10-29T17:33:22.116Z,22.23
2022-10-29T17:35:48.960Z,20.77
2022-10-29T17:38:16.973Z,19.00
2022-10-29T17:40:44.099Z,18.38
2022-10-29T17:43:10.734Z,21.70
2022-10-29T17:45:37.408Z,15.50
2022-10-29T17:48:04.370Z,19.13
2022-10-29T17:50:31.083Z,14.98
2022-10-29T17:52:57.750Z,20.33
2022-10-29T17:55:26.268Z,19.13
2022-10-29T17:57:52.956Z,16.47
2022-10-29T18:00:19.746Z,21.17
2022-10-29T18:02:48.662Z,22.13
2022-10-29T18:05:15.565Z,21.27
2022-10-29T18:07:42.333Z,22.08
2022-10-29T18:10:09.355Z,16.63
2022-10-29T18:12:37.459Z,23.33
2022-10-29T18:15:04.642Z,19.58
2022-10-29T18:17:31.743Z,16.83
2022-10-29T18:19:58.459Z,17.17
2022-10-29T18:22:25.209Z,18.17
2022-10-29T18:24:51.859Z,20.08
2022-10-29T18:27:18.942Z,18.73
2022-10-29T18:29:47.022Z,21.50
2022-10-29T18:32:13.712Z,23.15
2022-10-29T18:34:40.525Z,17.90
2022-10-29T18:37:07.164Z,14.15
2022-10-29T18:39:33.895Z,15.77
2022-10-29T18:42:00.633Z,16.80
2022-10-29T18:44:27.334Z,16.63
2022-10-29T18:46:55.401Z,18.63
2022-10-29T18:49:22.147Z,27.65
2022-10-29T18:51:48.859Z,15.88
2022-10-29T18:54:15.749Z,13.65
2022-10-29T18:56:42.661Z,17.30
2022-10-29T18:59:09.983Z,15.57
2022-10-29T19:01:37.061Z,19.23
2022-10-29T19:04:08.330Z,22.77
2022-10-29T19:06:37.059Z,19.45
2022-10-29T19:09:06.460Z,33.70
2022-10-29T19:11:33.717Z,40.80
2022-10-29T19:14:01.712Z,42.33
2022-10-29T19:16:30.096Z,29.05
2022-10-29T19:18:58.333Z,16.25
2022-10-29T19:21:27.361Z,18.27
2022-10-29T19:23:54.914Z,19.85
2022-10-29T19:26:22.025Z,25.77
2022-10-29T19:28:48.907Z,15.52
2022-10-29T19:31:20.387Z,13.73
2022-10-29T19:33:47.794Z,12.82
2022-10-29T19:36:14.568Z,17.53
2022-10-29T19:38:42.951Z,15.00
2022-10-29T19:41:09.891Z,12.82
2022-10-29T19:43:36.591Z,13.13
2022-10-29T19:46:06.785Z,16.80
2022-10-29T19:48:33.559Z,17.37
2022-10-29T19:51:00.218Z,22.85
2022-10-29T19:53:27.136Z,18.50
2022-10-29T19:55:55.228Z,18.83
2022-10-29T19:58:23.717Z,21.02
2022-10-29T20:00:50.589Z,23.33
2022-10-29T20:03:17.845Z,26.05
2022-10-29T20:05:45.279Z,25.23
2022-10-29T20:08:15.842Z,21.05
2022-10-29T20:10:43.370Z,26.67
2022-10-29T20:13:11.402Z,27.97
2022-10-29T20:15:38.594Z,27.75
2022-10-29T20:18:05.512Z,23.40
2022-10-29T20:20:32.251Z,26.00
2022-10-29T20:22:59.138Z,25.52
2022-10-29T20:25:26.084Z,29.03
2022-10-29T20:27:52.772Z,25.33
2022-10-29T20:30:21.003Z,29.15
2022-10-29T20:32:48.143Z,24.08
2022-10-29T20:35:15.109Z,26.30
2022-10-29T20:37:41.836Z,22.67
2022-10-29T20:40:09.988Z,20.08
2022-10-29T20:42:36.716Z,21.60
2022-10-29T20:45:03.790Z,19.88
2022-10-29T20:47:31.867Z,15.23
2022-10-29T20:49:58.565Z,20.47
2022-10-29T20:52:25.359Z,19.92
2022-10-29T20:54:52.028Z,19.27
2022-10-29T20:57:18.726Z,17.63
2022-10-29T20:59:45.358Z,21.17
2022-10-29T21:02:12.641Z,17.30
2022-10-29T21:04:40.886Z,15.85
2022-10-29T21:07:07.583Z,19.10
2022-10-29T21:09:34.312Z,23.98
2022-10-29T21:12:01.007Z,26.33
2022-10-29T21:14:27.688Z,22.23
2022-10-29T21:16:54.337Z,25.38
2022-10-29T21:19:21.016Z,23.50
2022-10-29T21:21:49.013Z,19.38
2022-10-29T21:24:15.672Z,20.75
2022-10-29T21:26:42.373Z,22.20
2022-10-29T21:29:09.103Z,22.67
2022-10-29T21:31:35.734Z,25.67
2022-10-29T21:34:02.582Z,18.58
2022-10-29T21:36:29.388Z,22.40
2022-10-29T21:38:57.499Z,21.40
2022-10-29T21:41:24.133Z,15.52
2022-10-29T21:43:50.825Z,17.30
2022-10-29T21:46:17.507Z,17.98
2022-10-29T21:48:44.198Z,17.63
2022-10-29T21:51:12.802Z,14.10
2022-10-29T21:53:39.577Z,14.75
2022-10-29T21:56:10.316Z,18.00
2022-10-29T21:58:37.082Z,34.13
2022-10-29T22:01:05.798Z,22.67
2022-10-29T22:03:33.425Z,16.23
2022-10-29T22:06:04.896Z,17.63
2022-10-29T22:08:33.819Z,21.15
2022-10-29T22:11:01.172Z,15.48
2022-10-29T22:13:30.107Z,15.00
2022-10-29T22:15:57.294Z,12.90
2022-10-29T22:18:24.255Z,14.45
2022-10-29T22:21:01.408Z,13.10
2022-10-29T22:23:28.080Z,11.70
2022-10-29T22:25:54.854Z,22.60
2022-10-29T22:28:21.520Z,12.38
2022-10-29T22:30:56.387Z,11.82
2022-10-29T22:33:23.125Z,12.38
2022-10-29T22:35:49.820Z,17.88
2022-10-29T22:38:16.446Z,12.60
2022-10-29T22:40:43.104Z,11.65
2022-10-29T22:43:09.761Z,10.15
2022-10-29T22:45:36.420Z,12.35
2022-10-29T22:48:04.870Z,10.82
2022-10-29T22:50:31.543Z,9.85
2022-10-29T22:52:58.424Z,11.13
2022-10-29T22:55:25.364Z,10.98
2022-10-29T22:57:52.025Z,8.90
2022-10-29T23:00:20.018Z,10.70
2022-10-29T23:02:46.816Z,11.60
2022-10-29T23:05:15.046Z,16.40
2022-10-29T23:07:41.731Z,13.02
2022-10-29T23:10:09.305Z,16.92
2022-10-29T23:12:35.991Z,14.90
2022-10-29T23:15:02.664Z,16.13
2022-10-29T23:17:29.304Z,13.98
2022-10-29T23:19:56.002Z,19.45
2022-10-29T23:22:27.351Z,18.80
2022-10-29T23:24:54.510Z,24.00
2022-10-29T23:27:21.196Z,20.75
2022-10-29T23:29:47.880Z,23.85
2022-10-29T23:32:14.520Z,23.50
2022-10-29T23:34:41.186Z,21.50
2022-10-29T23:37:09.917Z,19.88
2022-10-29T23:39:38.420Z,14.52
2022-10-29T23:42:05.172Z,16.63
2022-10-29T23:44:31.803Z,18.98
2022-10-29T23:47:00.152Z,18.52
2022-10-29T23:49:26.922Z,16.33
2022-10-29T23:51:53.596Z,15.48
2022-10-29T23:54:20.268Z,15.50
2022-10-29T23:56:48.271Z,15.32
2022-10-29T23:59:14.958Z,16.88
